Time;durP1;ratioP1;P1;durP2;ratioP2;P2;SDS_P1;SDS_P2;PMS_P1;PMS_P2;Temp;Humidity;BMP_temperature;BMP_pressure;BME280_temperature;BME280_humidity;BME280_pressure;Samples;Min_cycle;Max_cycle;Signal;HPM_P1;HPM_P2
2023/07/10 00:01:25;;;;;;;42.35;27.85;;;18.80;99.90;;;;;;5061701;28;20741;-81
2023/07/10 00:03:51;;;;;;;42.05;28.48;;;18.80;99.90;;;;;;5061236;28;20401;-81
2023/07/10 00:06:17;;;;;;;44.03;28.10;;;18.60;99.90;;;;;;5059558;28;20378;-81
2023/07/10 00:08:46;;;;;;;41.30;27.53;;;18.80;99.90;;;;;;5058426;28;20891;-81
2023/07/10 00:11:30;;;;;;;40.25;28.95;;;18.90;99.90;;;;;;5061216;28;20406;-81
2023/07/10 00:13:56;;;;;;;44.10;28.98;;;19.20;99.90;;;;;;5061939;28;20430;-81
2023/07/10 00:16:24;;;;;;;46.53;29.63;;;18.70;99.90;;;;;;5061604;28;20485;-81
2023/07/10 00:18:58;;;;;;;52.17;30.25;;;18.60;99.90;;;;;;5061905;28;20498;-81
2023/07/10 00:21:31;;;;;;;48.50;30.03;;;18.00;99.90;;;;;;5061456;28;20444;-81
2023/07/10 00:24:00;;;;;;;45.03;29.88;;;18.80;99.90;;;;;;5061231;28;20398;-82
2023/07/10 00:26:28;;;;;;;48.40;30.38;;;18.50;99.90;;;;;;5061701;28;20398;-81
2023/07/10 00:28:57;;;;;;;51.17;31.60;;;18.10;99.90;;;;;;5062210;28;20482;-81
2023/07/10 00:31:28;;;;;;;49.15;31.38;;;19.00;99.90;;;;;;5061493;28;20405;-81
2023/07/10 00:33:56;;;;;;;51.53;32.25;;;18.00;99.90;;;;;;5077417;28;20421;-81
2023/07/10 00:36:35;;;;;;;50.45;31.83;;;17.90;99.90;;;;;;5078071;28;20438;-81
2023/07/10 00:39:27;;;;;;;53.95;32.17;;;18.00;99.90;;;;;;5060490;28;20402;-81
2023/07/10 00:42:21;;;;;;;55.80;33.58;;;18.20;99.90;;;;;;5077105;28;20398;-81
2023/07/10 00:44:59;;;;;;;51.53;33.10;;;17.70;99.90;;;;;;5087605;28;20421;-81
2023/07/10 00:47:30;;;;;;;52.15;33.78;;;18.20;99.90;;;;;;5061216;28;20417;-81
2023/07/10 00:50:33;;;;;;;55.72;34.17;;;18.30;99.90;;;;;;5061047;28;20402;-81
2023/07/10 00:53:01;;;;;;;50.97;34.15;;;18.30;99.90;;;;;;5034913;28;20406;-81
2023/07/10 00:56:09;;;;;;;51.08;33.42;;;18.30;99.90;;;;;;5061058;28;20451;-81
2023/07/10 00:59:04;;;;;;;49.27;33.20;;;17.20;99.90;;;;;;5077493;28;20429;-81
2023/07/10 01:02:07;;;;;;;51.97;33.57;;;18.20;99.90;;;;;;5058449;28;20863;-81
2023/07/10 01:04:42;;;;;;;48.55;32.92;;;18.20;99.90;;;;;;5059981;28;20402;-81
2023/07/10 01:07:16;;;;;;;47.38;33.40;;;19.80;99.90;;;;;;5060001;28;20432;-82
2023/07/10 01:09:49;;;;;;;57.15;34.72;;;18.30;99.90;;;;;;5061022;28;20493;-81
2023/07/10 01:12:18;;;;;;;51.83;33.65;;;;;;;;;;5060129;28;20449;-81
2023/07/10 01:14:44;;;;;;;55.27;35.23;;;18.00;99.90;;;;;;5061709;28;20769;-82
2023/07/10 01:17:11;;;;;;;55.17;35.93;;;17.80;99.90;;;;;;5096694;28;20419;-82
2023/07/10 01:19:38;;;;;;;53.90;35.13;;;18.30;99.90;;;;;;5079810;28;20404;-82
2023/07/10 01:22:05;;;;;;;53.10;35.80;;;18.00;99.90;;;;;;5079512;28;20888;-82
2023/07/10 01:24:31;;;;;;;51.65;35.58;;;18.10;99.90;;;;;;5096876;28;20396;-81
2023/07/10 01:26:57;;;;;;;58.60;36.15;;;18.10;99.90;;;;;;5096228;28;20411;-82
2023/07/10 01:29:41;;;;;;;58.55;36.85;;;18.00;99.90;;;;;;5097891;28;20487;-82
2023/07/10 01:32:13;;;;;;;53.30;36.13;;;17.90;99.90;;;;;;5079857;28;20436;-81
2023/07/10 01:34:43;;;;;;;54.30;35.30;;;18.00;99.90;;;;;;5080161;28;20736;-81
2023/07/10 01:37:11;;;;;;;56.50;36.33;;;17.90;99.90;;;;;;5096673;28;20412;-81
2023/07/10 01:39:54;;;;;;;56.20;36.15;;;18.00;99.90;;;;;;5079522;28;20404;-81
2023/07/10 01:42:28;;;;;;;58.20;36.25;;;18.00;99.90;;;;;;5096079;28;20943;-82
2023/07/10 01:44:54;;;;;;;55.92;36.72;;;18.00;99.90;;;;;;5063286;28;20401;-81
2023/07/10 01:47:20;;;;;;;58.17;37.87;;;18.20;99.90;;;;;;5096585;28;20494;-82
2023/07/10 01:49:54;;;;;;;51.70;37.63;;;18.00;99.90;;;;;;5079620;28;20393;-81
2023/07/10 01:52:21;;;;;;;55.90;36.75;;;18.30;99.90;;;;;;5079205;28;20880;-81
2023/07/10 01:54:47;;;;;;;57.53;36.03;;;18.20;99.90;;;;;;5114639;28;20479;-80
2023/07/10 01:57:15;;;;;;;52.05;36.38;;;17.90;99.90;;;;;;5095733;28;20756;-81
2023/07/10 01:59:44;;;;;;;49.90;33.33;;;17.90;99.90;;;;;;5096733;28;20484;-82
2023/07/10 02:02:10;;;;;;;47.05;34.35;;;18.70;99.90;;;;;;5078838;28;20414;-80
2023/07/10 02:04:36;;;;;;;49.85;34.35;;;17.80;99.90;;;;;;5079092;28;20407;-80
2023/07/10 02:07:02;;;;;;;53.78;36.30;;;17.90;99.90;;;;;;5079215;28;20400;-81
2023/07/10 02:09:29;;;;;;;54.63;35.40;;;18.10;99.90;;;;;;5114261;28;20421;-81
2023/07/10 02:11:56;;;;;;;56.10;36.37;;;18.00;99.90;;;;;;5062558;28;20946;-81
2023/07/10 02:14:25;;;;;;;56.17;37.13;;;17.80;99.90;;;;;;5096072;28;20392;-81
2023/07/10 02:16:51;;;;;;;59.72;38.63;;;17.80;99.90;;;;;;5095695;28;20414;-85
2023/07/10 02:19:19;;;;;;;56.58;38.65;;;15.60;99.90;;;;;;5067127;28;20469;-85
2023/07/10 02:21:45;;;;;;;62.83;39.35;;;18.20;99.90;;;;;;5100819;28;20469;-86
2023/07/10 02:24:11;;;;;;;59.80;39.05;;;17.80;99.90;;;;;;5058942;28;20474;-86
2023/07/10 02:26:37;;;;;;;55.90;38.17;;;18.10;99.90;;;;;;5107426;28;20896;-81
2023/07/10 02:29:03;;;;;;;59.83;38.10;;;18.00;99.90;;;;;;5079217;28;20541;-86
2023/07/10 02:31:30;;;;;;;50.13;36.23;;;17.90;99.90;;;;;;5063913;28;20410;-87
2023/07/10 02:33:55;;;;;;;53.60;36.78;;;18.20;99.90;;;;;;5057873;28;20941;-87
2023/07/10 02:36:22;;;;;;;54.85;36.38;;;18.10;99.90;;;;;;5059763;28;20390;-86
2023/07/10 02:38:51;;;;;;;55.65;36.72;;;17.90;99.90;;;;;;5075795;28;20477;-86
2023/07/10 02:41:17;;;;;;;52.97;36.77;;;18.00;99.90;;;;;;5071003;28;20402;-86
2023/07/10 02:43:42;;;;;;;55.40;37.00;;;18.20;99.90;;;;;;5090451;28;20413;-86
2023/07/10 02:46:08;;;;;;;59.75;37.28;;;18.40;99.90;;;;;;5059497;28;20870;-87
2023/07/10 02:48:34;;;;;;;52.90;37.10;;;18.00;99.90;;;;;;5058769;28;20408;-86
2023/07/10 02:51:00;;;;;;;51.13;36.07;;;18.00;99.90;;;;;;5075197;28;20420;-86
2023/07/10 02:53:28;;;;;;;55.72;35.50;;;18.00;99.90;;;;;;5077036;28;20446;-87
2023/07/10 02:55:57;;;;;;;54.67;36.28;;;17.80;99.90;;;;;;5081017;28;20427;-85
2023/07/10 02:58:22;;;;;;;51.07;34.70;;;18.90;99.90;;;;;;5079107;28;20509;-85
2023/07/10 03:01:02;;;;;;;51.30;35.37;;;17.90;99.90;;;;;;5047606;28;20492;-85
2023/07/10 03:03:28;;;;;;;49.80;34.57;;;17.90;99.90;;;;;;5063756;28;20592;-85
2023/07/10 03:06:01;;;;;;;52.00;35.90;;;16.70;99.90;;;;;;5078903;28;20761;-85
2023/07/10 03:08:28;;;;;;;48.25;34.55;;;17.80;99.90;;;;;;5072750;28;20823;-85
2023/07/10 03:11:13;;;;;;;46.95;32.53;;;17.60;99.90;;;;;;5098206;28;20458;-85
2023/07/10 03:13:38;;;;;;;41.70;29.93;;;17.70;99.90;;;;;;5082821;28;20748;-85
2023/07/10 03:16:09;;;;;;;39.97;29.60;;;17.80;99.90;;;;;;5066335;28;20408;-86
2023/07/10 03:18:38;;;;;;;39.72;28.60;;;17.40;99.90;;;;;;5075559;28;20414;-86
2023/07/10 03:21:06;;;;;;;39.05;28.60;;;17.50;99.90;;;;;;5062474;28;20792;-86
2023/07/10 03:23:32;;;;;;;38.50;27.83;;;17.60;99.90;;;;;;5065330;28;20893;-85
2023/07/10 03:25:57;;;;;;;37.80;28.02;;;17.50;99.90;;;;;;5079430;28;20400;-86
2023/07/10 03:28:24;;;;;;;31.75;25.00;;;17.70;99.90;;;;;;5078625;28;20996;-86
2023/07/10 03:30:50;;;;;;;37.22;26.40;;;17.60;99.90;;;;;;5105048;28;20456;-86
2023/07/10 03:33:17;;;;;;;33.63;24.98;;;17.70;99.90;;;;;;5082142;28;20487;-86
2023/07/10 03:35:48;;;;;;;31.40;24.37;;;17.50;99.90;;;;;;5099109;28;20493;-86
2023/07/10 03:38:15;;;;;;;35.47;24.35;;;17.60;99.90;;;;;;5076325;28;20425;-86
2023/07/10 03:40:57;;;;;;;28.75;22.80;;;17.70;99.90;;;;;;5061835;28;20765;-86
2023/07/10 03:43:26;;;;;;;33.72;24.13;;;17.60;99.90;;;;;;5077512;28;20770;-87
2023/07/10 03:45:54;;;;;;;28.77;22.80;;;17.30;99.90;;;;;;5079987;28;20898;-86
2023/07/10 03:48:20;;;;;;;31.48;23.55;;;17.50;99.90;;;;;;5074068;28;20400;-87
2023/07/10 03:50:46;;;;;;;28.73;22.33;;;17.30;99.90;;;;;;5064953;28;20499;-86
2023/07/10 03:53:14;;;;;;;31.40;23.07;;;17.60;99.90;;;;;;5095208;28;20421;-86
2023/07/10 03:55:54;;;;;;;30.50;23.52;;;17.40;99.90;;;;;;5058416;28;20419;-86
2023/07/10 03:58:22;;;;;;;32.75;24.98;;;17.50;99.90;;;;;;5041934;28;20427;-86
2023/07/10 04:00:49;;;;;;;33.15;24.17;;;17.60;99.90;;;;;;5059732;28;20434;-87
2023/07/10 04:03:15;;;;;;;35.13;24.58;;;17.70;99.90;;;;;;5071600;28;20383;-83
2023/07/10 04:05:48;;;;;;;32.00;24.52;;;17.40;99.90;;;;;;5075218;28;20395;-82
2023/07/10 04:08:14;;;;;;;35.58;24.67;;;17.50;99.90;;;;;;5074936;28;20457;-82
2023/07/10 04:10:39;;;;;;;30.40;23.57;;;17.50;99.90;;;;;;5040075;28;20818;-83
2023/07/10 04:13:05;;;;;;;31.23;22.87;;;17.40;99.90;;;;;;5057518;28;20460;-82
2023/07/10 04:15:31;;;;;;;28.92;22.02;;;17.40;99.90;;;;;;5077930;28;20564;-83
2023/07/10 04:17:56;;;;;;;24.25;19.58;;;17.40;99.90;;;;;;5093084;28;20424;-81
2023/07/10 04:20:22;;;;;;;24.93;19.83;;;17.80;99.90;;;;;;5096110;28;20402;-81
2023/07/10 04:22:48;;;;;;;22.43;18.43;;;17.70;99.90;;;;;;5077425;28;20398;-81
2023/07/10 04:25:14;;;;;;;22.17;17.52;;;17.60;99.90;;;;;;5077782;28;20402;-81
2023/07/10 04:27:39;;;;;;;23.13;17.65;;;17.60;99.90;;;;;;5094545;28;20800;-81
2023/07/10 04:30:06;;;;;;;20.23;14.38;;;17.60;99.90;;;;;;5095594;28;20394;-81
2023/07/10 04:32:32;;;;;;;17.55;14.38;;;17.70;99.90;;;;;;5096480;28;20401;-82
2023/07/10 04:35:01;;;;;;;17.52;13.38;;;17.40;99.90;;;;;;5058819;28;20396;-81
2023/07/10 04:37:29;;;;;;;15.13;11.60;;;17.50;99.90;;;;;;5042695;28;20426;-81
2023/07/10 04:39:55;;;;;;;15.40;11.25;;;17.20;99.90;;;;;;5052876;28;20452;-81
2023/07/10 04:42:21;;;;;;;14.15;10.80;;;17.20;99.90;;;;;;5080542;28;20401;-81
2023/07/10 04:44:47;;;;;;;14.52;10.95;;;17.40;99.90;;;;;;5098167;28;20516;-81
2023/07/10 04:47:13;;;;;;;12.73;9.20;;;17.10;99.90;;;;;;5115738;28;20450;-87
2023/07/10 04:49:38;;;;;;;12.50;9.43;;;17.10;99.90;;;;;;5080899;28;20448;-86
2023/07/10 04:52:04;;;;;;;12.47;8.90;;;17.10;99.90;;;;;;5079783;28;20519;-86
2023/07/10 04:54:30;;;;;;;12.73;7.65;;;17.80;99.90;;;;;;5077783;28;20405;-86
2023/07/10 04:56:56;;;;;;;10.68;8.23;;;16.90;99.90;;;;;;5075605;28;20421;-86
2023/07/10 04:59:22;;;;;;;11.13;7.30;;;16.80;99.90;;;;;;5093553;28;20500;-87
2023/07/10 05:01:56;;;;;;;12.35;7.22;;;16.90;99.90;;;;;;5061243;28;20398;-85
2023/07/10 05:04:22;;;;;;;9.48;6.32;;;17.10;99.90;;;;;;5073366;28;20459;-85
2023/07/10 05:06:51;;;;;;;11.40;6.30;;;16.90;99.90;;;;;;5087221;28;20493;-85
2023/07/10 05:09:17;;;;;;;11.97;6.20;;;17.10;99.90;;;;;;5075373;28;20504;-86
2023/07/10 05:11:46;;;;;;;11.03;6.53;;;16.90;99.90;;;;;;5082290;28;20940;-83
2023/07/10 05:14:15;;;;;;;11.55;7.22;;;17.30;99.90;;;;;;5081793;28;20400;-86
2023/07/10 05:16:41;;;;;;;11.10;6.90;;;17.50;99.90;;;;;;5076623;28;20871;-86
2023/07/10 05:19:09;;;;;;;12.07;7.25;;;17.50;99.90;;;;;;5079635;28;20473;-86
2023/07/10 05:21:35;;;;;;;11.85;6.93;;;17.40;99.90;;;;;;5061138;28;20493;-86
2023/07/10 05:24:04;;;;;;;9.47;6.87;;;17.40;99.90;;;;;;5081194;28;20412;-86
2023/07/10 05:26:29;;;;;;;8.88;6.57;;;17.40;99.90;;;;;;5077235;28;20413;-86
2023/07/10 05:28:56;;;;;;;9.43;6.45;;;17.50;99.90;;;;;;5066568;28;20471;-80
2023/07/10 05:31:24;;;;;;;9.30;6.07;;;17.20;99.90;;;;;;5060576;28;20402;-78
2023/07/10 05:33:50;;;;;;;10.98;6.18;;;17.50;99.90;;;;;;5043240;28;20398;-81
2023/07/10 05:36:17;;;;;;;9.23;6.47;;;18.00;99.90;;;;;;5078619;28;20900;-81
2023/07/10 05:38:48;;;;;;;10.15;6.60;;;17.80;99.90;;;;;;5080194;28;20450;-81
2023/07/10 05:41:19;;;;;;;10.60;6.67;;;17.60;99.90;;;;;;5098353;28;20423;-81
2023/07/10 05:43:49;;;;;;;9.33;6.60;;;17.60;99.90;;;;;;5078160;28;20418;-82
2023/07/10 05:46:19;;;;;;;10.90;6.68;;;17.60;99.90;;;;;;5090830;28;20402;-82
2023/07/10 05:49:05;;;;;;;10.40;7.35;;;17.70;99.90;;;;;;5081133;28;20440;-82
2023/07/10 05:51:33;;;;;;;9.93;7.30;;;17.80;99.90;;;;;;5056925;28;20792;-81
2023/07/10 05:54:02;;;;;;;10.05;7.18;;;17.70;99.90;;;;;;5097837;28;20398;-82
2023/07/10 05:56:28;;;;;;;10.52;6.63;;;17.80;99.90;;;;;;5071731;28;20400;-81
2023/07/10 05:58:54;;;;;;;10.15;6.40;;;17.70;99.90;;;;;;5094779;28;20490;-80
2023/07/10 06:01:19;;;;;;;9.13;6.33;;;17.80;99.90;;;;;;5064473;28;20449;-80
2023/07/10 06:03:45;;;;;;;10.90;6.83;;;17.60;99.90;;;;;;5078123;28;20417;-81
2023/07/10 06:06:11;;;;;;;11.82;6.47;;;17.10;99.90;;;;;;5068139;28;20428;-82
2023/07/10 06:08:38;;;;;;;11.55;6.25;;;17.70;99.90;;;;;;5077338;28;20765;-81
2023/07/10 06:11:05;;;;;;;10.68;5.80;;;17.50;99.90;;;;;;5072109;28;20430;-81
2023/07/10 06:13:32;;;;;;;11.63;5.85;;;17.70;99.90;;;;;;5060143;28;20418;-79
2023/07/10 06:15:58;;;;;;;8.95;5.53;;;17.70;99.90;;;;;;5099384;28;20419;-80
2023/07/10 06:18:25;;;;;;;10.30;5.67;;;17.90;99.90;;;;;;5083216;28;20416;-83
2023/07/10 06:20:57;;;;;;;10.43;6.03;;;18.00;99.90;;;;;;5100633;28;20418;-80
2023/07/10 06:23:24;;;;;;;12.90;5.05;;;18.20;99.90;;;;;;5077249;28;20963;-80
2023/07/10 06:25:50;;;;;;;10.27;4.60;;;18.60;99.90;;;;;;5074510;28;20540;-80
2023/07/10 06:28:16;;;;;;;8.90;4.93;;;18.70;99.90;;;;;;5099053;28;20412;-79
2023/07/10 06:30:43;;;;;;;10.05;4.90;;;18.60;99.90;;;;;;5080083;28;20434;-80
2023/07/10 06:33:10;;;;;;;11.38;4.68;;;18.60;99.90;;;;;;5081225;28;20413;-79
2023/07/10 06:35:35;;;;;;;8.30;4.50;;;18.80;99.90;;;;;;5077125;28;20450;-79
2023/07/10 06:38:01;;;;;;;8.07;4.28;;;19.10;99.90;;;;;;5099428;28;20919;-77
2023/07/10 06:40:27;;;;;;;9.17;4.00;;;18.90;99.90;;;;;;5082466;28;20414;-80
2023/07/10 06:42:52;;;;;;;11.68;4.28;;;19.40;99.90;;;;;;5077330;28;20444;-81
2023/07/10 06:45:18;;;;;;;9.00;4.13;;;19.10;99.90;;;;;;5080375;28;20475;-81
2023/07/10 06:47:45;;;;;;;8.35;3.72;;;19.40;99.90;;;;;;5094108;28;20428;-80
2023/07/10 06:50:13;;;;;;;8.13;4.00;;;19.50;99.90;;;;;;5102779;28;20857;-80
2023/07/10 06:52:42;;;;;;;7.50;3.65;;;19.40;99.90;;;;;;5104173;28;20420;-85
2023/07/10 06:55:12;;;;;;;6.75;3.60;;;19.70;99.90;;;;;;5105186;28;20450;-85
2023/07/10 06:57:38;;;;;;;11.25;3.72;;;19.80;99.90;;;;;;5072279;28;20417;-86
2023/07/10 07:00:05;;;;;;;9.23;3.50;;;20.30;99.90;;;;;;5082763;28;20398;-86
2023/07/10 07:02:32;;;;;;;9.70;3.28;;;20.00;99.90;;;;;;5086981;28;20418;-85
2023/07/10 07:04:57;;;;;;;8.35;3.38;;;20.10;99.90;;;;;;5088119;28;20905;-88
2023/07/10 07:07:23;;;;;;;8.05;3.22;;;19.80;99.90;;;;;;5063268;28;20429;-87
2023/07/10 07:09:49;;;;;;;9.95;3.70;;;18.40;99.90;;;;;;5063935;28;20840;-88
2023/07/10 07:12:15;;;;;;;10.90;3.73;;;20.00;99.90;;;;;;5062737;28;20412;-88
2023/07/10 07:14:41;;;;;;;8.97;3.47;;;20.50;99.90;;;;;;5088787;28;20771;-85
2023/07/10 07:17:06;;;;;;;6.77;3.27;;;20.20;99.90;;;;;;5096999;28;20447;-87
2023/07/10 07:19:32;;;;;;;7.70;3.05;;;20.20;99.90;;;;;;5060439;28;20398;-86
2023/07/10 07:22:00;;;;;;;10.00;3.13;;;20.00;99.90;;;;;;5078791;28;20498;-87
2023/07/10 07:24:25;;;;;;;9.48;3.00;;;20.60;99.90;;;;;;5078461;28;20440;-88
2023/07/10 07:26:51;;;;;;;10.23;2.97;;;20.40;99.90;;;;;;5063867;28;20422;-88
2023/07/10 07:29:17;;;;;;;11.68;2.90;;;20.50;99.90;;;;;;5097079;28;20410;-85
2023/07/10 07:31:42;;;;;;;9.10;3.10;;;20.60;99.90;;;;;;5082062;28;20397;-87
2023/07/10 07:34:08;;;;;;;8.63;2.90;;;20.80;99.90;;;;;;5090369;28;20398;-87
2023/07/10 07:36:34;;;;;;;7.47;2.85;;;21.10;99.90;;;;;;5067272;28;20412;-88
2023/07/10 07:39:04;;;;;;;6.78;2.70;;;21.00;99.90;;;;;;5060673;28;20425;-87
2023/07/10 07:41:32;;;;;;;10.07;3.22;;;21.20;99.90;;;;;;5061329;28;20412;-85
2023/07/10 07:43:59;;;;;;;9.27;3.30;;;21.10;99.90;;;;;;5111218;28;20419;-85
2023/07/10 07:46:25;;;;;;;9.85;3.05;;;21.30;99.90;;;;;;5056117;28;20501;-84
2023/07/10 07:48:50;;;;;;;6.47;2.90;;;21.20;99.90;;;;;;5092561;28;21011;-85
2023/07/10 07:51:17;;;;;;;9.57;3.30;;;21.30;99.90;;;;;;5098279;28;20511;-82
2023/07/10 07:53:43;;;;;;;7.38;2.80;;;21.30;99.90;;;;;;5097805;28;20401;-85
2023/07/10 07:56:09;;;;;;;9.70;3.65;;;21.40;99.90;;;;;;5098295;28;20420;-85
2023/07/10 07:58:35;;;;;;;7.22;3.00;;;21.40;99.90;;;;;;5101191;28;20538;-85
2023/07/10 08:01:02;;;;;;;8.43;3.00;;;21.50;99.90;;;;;;5061303;28;20409;-85
2023/07/10 08:03:28;;;;;;;8.10;3.00;;;21.20;99.90;;;;;;5062781;28;20428;-84
2023/07/10 08:05:54;;;;;;;8.90;3.42;;;21.40;99.90;;;;;;5085128;28;20412;-85
2023/07/10 08:08:21;;;;;;;7.07;2.90;;;21.70;99.90;;;;;;5087317;28;20431;-85
2023/07/10 08:10:49;;;;;;;8.23;3.13;;;21.90;99.90;;;;;;5082173;28;20410;-85
2023/07/10 08:13:18;;;;;;;8.82;3.40;;;21.90;99.90;;;;;;5078248;28;20433;-85
2023/07/10 08:15:44;;;;;;;9.57;3.33;;;21.90;99.90;;;;;;5109071;28;20400;-85
2023/07/10 08:18:10;;;;;;;10.00;3.42;;;21.90;99.90;;;;;;5077005;28;20416;-86
2023/07/10 08:20:36;;;;;;;9.10;3.13;;;21.80;99.90;;;;;;5100015;28;20410;-85
2023/07/10 08:23:03;;;;;;;10.07;3.72;;;22.20;99.90;;;;;;5064648;28;20964;-84
2023/07/10 08:25:29;;;;;;;9.47;3.70;;;22.20;99.90;;;;;;5064440;28;20404;-85
2023/07/10 08:27:57;;;;;;;8.52;3.40;;;22.20;99.90;;;;;;5085959;28;20441;-85
2023/07/10 08:30:23;;;;;;;8.20;3.23;;;22.30;99.90;;;;;;5076863;28;20505;-85
2023/07/10 08:32:48;;;;;;;9.43;3.23;;;22.20;99.90;;;;;;5076381;28;20492;-81
2023/07/10 08:35:14;;;;;;;10.10;3.22;;;22.50;99.90;;;;;;5064008;28;20416;-80
2023/07/10 08:37:40;;;;;;;10.00;3.10;;;22.60;99.90;;;;;;5074935;28;20412;-79
2023/07/10 08:40:15;;;;;;;13.60;3.50;;;23.00;99.90;;;;;;5086774;28;20923;-79
2023/07/10 08:42:42;;;;;;;9.05;3.47;;;22.70;99.90;;;;;;5098301;28;20422;-79
2023/07/10 08:45:14;;;;;;;9.95;3.50;;;22.80;99.90;;;;;;5100230;27;20810;-79
2023/07/10 08:47:44;;;;;;;8.70;3.00;;;22.90;99.90;;;;;;5062181;28;20999;-79
2023/07/10 08:50:16;;;;;;;11.43;3.00;;;23.00;99.90;;;;;;5114013;28;20392;-77
2023/07/10 08:52:47;;;;;;;9.80;3.20;;;22.90;99.90;;;;;;5079744;28;20418;-77
2023/07/10 08:55:33;;;;;;;7.75;3.40;;;22.90;99.90;;;;;;5088405;28;20894;-79
2023/07/10 08:58:01;;;;;;;9.48;3.35;;;23.10;99.90;;;;;;5084804;28;20418;-78
2023/07/10 09:00:30;;;;;;;9.95;3.00;;;23.00;99.90;;;;;;5082991;28;20471;-79
2023/07/10 09:03:17;;;;;;;9.85;3.15;;;23.30;99.90;;;;;;5065909;28;20408;-79
2023/07/10 09:05:49;;;;;;;12.00;3.35;;;23.40;99.90;;;;;;5096231;28;20839;-78
2023/07/10 09:08:17;;;;;;;10.20;3.63;;;23.40;99.90;;;;;;5070192;28;20484;-79
2023/07/10 09:10:47;;;;;;;9.80;3.60;;;23.10;99.90;;;;;;5107804;28;20420;-79
2023/07/10 09:13:39;;;;;;;13.40;4.30;;;23.30;99.90;;;;;;5089942;28;20445;-79
2023/07/10 09:16:14;;;;;;;9.98;3.58;;;23.20;99.90;;;;;;5086904;28;20778;-80
2023/07/10 09:19:14;;;;;;;11.80;3.73;;;23.30;99.90;;;;;;5068399;28;20485;-79
2023/07/10 09:21:41;;;;;;;11.40;3.53;;;23.60;99.90;;;;;;5074954;28;20425;-79
2023/07/10 09:24:18;;;;;;;11.18;3.80;;;23.40;99.90;;;;;;5065597;28;20421;-79
2023/07/10 09:26:44;;;;;;;10.93;3.63;;;23.50;99.90;;;;;;5058419;28;20418;-79
2023/07/10 09:29:09;;;;;;;8.55;3.17;;;23.40;99.90;;;;;;5081643;28;20416;-79
2023/07/10 09:31:50;;;;;;;9.55;3.50;;;23.50;99.90;;;;;;5080788;28;20422;-79
2023/07/10 09:34:20;;;;;;;9.93;3.05;;;23.50;99.90;;;;;;5074929;28;20398;-78
2023/07/10 09:36:50;;;;;;;8.30;2.92;;;23.70;99.90;;;;;;5077412;28;20499;-79
2023/07/10 09:39:16;;;;;;;9.60;3.17;;;23.70;99.90;;;;;;5095390;28;20420;-78
2023/07/10 09:41:46;;;;;;;11.32;3.50;;;23.80;99.90;;;;;;5056222;28;20486;-78
2023/07/10 09:44:17;;;;;;;11.18;3.92;;;23.80;99.90;;;;;;5075918;28;20477;-78
2023/07/10 09:46:43;;;;;;;11.07;4.30;;;23.90;99.90;;;;;;5077016;28;20428;-78
2023/07/10 09:49:21;;;;;;;9.17;3.13;;;24.30;99.90;;;;;;5069945;28;20413;-78
2023/07/10 09:51:58;;;;;;;12.93;3.70;;;24.40;99.90;;;;;;5079045;28;20414;-77
2023/07/10 09:54:24;;;;;;;10.75;3.53;;;24.20;99.90;;;;;;5103339;28;20774;-78
2023/07/10 09:56:54;;;;;;;8.00;3.53;;;24.10;99.90;;;;;;5103863;28;20532;-79
2023/07/10 09:59:30;;;;;;;9.52;3.17;;;24.60;99.90;;;;;;5067517;28;20428;-79
2023/07/10 10:01:55;;;;;;;11.90;3.80;;;24.30;99.90;;;;;;5096862;28;20479;-81
2023/07/10 10:04:29;;;;;;;11.02;3.83;;;24.30;99.90;;;;;;5104824;28;20404;-80
2023/07/10 10:07:22;;;;;;;9.32;3.45;;;22.00;99.90;;;;;;5065648;28;20424;-80
2023/07/10 10:10:18;;;;;;;8.93;2.92;;;24.00;99.90;;;;;;5090305;28;20420;-79
2023/07/10 10:12:47;;;;;;;9.85;3.13;;;23.80;99.90;;;;;;5097353;27;20422;-79
2023/07/10 10:15:40;;;;;;;11.30;3.20;;;23.80;99.90;;;;;;5059784;28;20898;-79
2023/07/10 10:18:35;;;;;;;11.77;3.38;;;24.10;99.90;;;;;;5085227;28;20422;-78
2023/07/10 10:21:02;;;;;;;9.80;3.20;;;24.40;99.90;;;;;;5057137;28;20418;-80
2023/07/10 10:23:37;;;;;;;11.85;3.78;;;24.40;99.90;;;;;;5088312;28;20462;-80
2023/07/10 10:26:31;;;;;;;10.48;3.33;;;24.70;99.90;;;;;;5066835;28;20529;-80
2023/07/10 10:29:12;;;;;;;12.40;3.42;;;24.60;99.90;;;;;;5090737;28;20529;-80
2023/07/10 10:31:49;;;;;;;10.95;3.20;;;24.80;99.90;;;;;;5112979;28;20452;-79
2023/07/10 10:34:24;;;;;;;9.95;3.60;;;24.60;99.90;;;;;;5087052;28;20834;-79
2023/07/10 10:37:22;;;;;;;10.82;3.22;;;25.00;99.90;;;;;;5084920;28;20505;-80
2023/07/10 10:40:14;;;;;;;10.30;3.10;;;25.00;99.90;;;;;;5080284;28;20472;-81
2023/07/10 10:42:52;;;;;;;9.07;2.80;;;25.00;99.90;;;;;;5076440;28;21057;-80
2023/07/10 10:45:35;;;;;;;10.65;3.20;;;24.90;99.90;;;;;;5108615;28;20419;-79
2023/07/10 10:48:45;;;;;;;9.02;2.90;;;25.40;99.90;;;;;;5094380;28;20412;-80
2023/07/10 10:51:25;;;;;;;9.07;2.95;;;22.70;99.90;;;;;;5092541;28;20430;-78
2023/07/10 10:54:00;;;;;;;11.23;3.67;;;24.90;99.90;;;;;;5063721;28;20423;-79
2023/07/10 10:56:32;;;;;;;9.02;2.72;;;24.50;99.90;;;;;;5066763;28;20504;-79
2023/07/10 10:59:29;;;;;;;8.02;2.45;;;24.20;99.90;;;;;;5063533;28;20454;-81
2023/07/10 11:02:17;;;;;;;7.85;2.50;;;24.20;99.90;;;;;;5060903;28;20920;-79
2023/07/10 11:04:51;;;;;;;7.28;2.53;;;24.50;99.90;;;;;;5084454;28;20417;-81
2023/07/10 11:07:22;;;;;;;10.98;2.40;;;24.70;99.90;;;;;;5084132;28;20474;-81
2023/07/10 11:10:00;;;;;;;7.03;2.40;;;24.80;99.90;;;;;;5065858;28;20433;-80
2023/07/10 11:12:32;;;;;;;9.23;2.90;;;24.80;99.90;;;;;;5100090;28;20433;-80
2023/07/10 11:15:16;;;;;;;11.15;2.75;;;25.10;99.90;;;;;;5103194;28;20440;-83
2023/07/10 11:17:44;;;;;;;6.50;2.37;;;24.80;99.90;;;;;;5095620;28;20912;-80
2023/07/10 11:20:15;;;;;;;7.68;2.90;;;24.80;99.90;;;;;;5096419;28;20881;-81
2023/07/10 11:22:52;;;;;;;10.48;2.80;;;24.80;99.90;;;;;;5089498;28;20764;-81
2023/07/10 11:25:42;;;;;;;8.80;2.70;;;24.60;99.90;;;;;;5090279;28;21144;-80
2023/07/10 11:28:20;;;;;;;9.73;2.58;;;24.40;99.90;;;;;;5074917;28;21042;-80
2023/07/10 11:30:47;;;;;;;7.70;2.38;;;24.30;99.90;;;;;;5084490;28;20414;-79
2023/07/10 11:33:20;;;;;;;9.38;2.67;;;24.10;99.90;;;;;;5061687;28;22207;-79
2023/07/10 11:36:15;;;;;;;7.63;2.22;;;24.40;99.90;;;;;;5051056;28;20408;-79
2023/07/10 11:39:09;;;;;;;7.32;2.30;;;24.60;99.90;;;;;;5077260;28;20445;-80
2023/07/10 11:41:44;;;;;;;10.23;2.30;;;24.70;99.90;;;;;;5039256;28;20416;-80
2023/07/10 11:44:21;;;;;;;8.20;2.50;;;25.10;99.90;;;;;;5072858;28;20452;-79
2023/07/10 11:46:56;;;;;;;7.33;2.23;;;25.80;99.90;;;;;;5079631;28;20432;-80
2023/07/10 11:49:27;;;;;;;11.00;2.57;;;25.30;99.90;;;;;;5065446;28;20420;-79
2023/07/10 11:52:08;;;;;;;7.15;2.17;;;25.30;99.90;;;;;;5067516;28;20459;-79
2023/07/10 11:54:34;;;;;;;6.97;2.45;;;25.40;99.90;;;;;;5077456;28;20412;-80
2023/07/10 11:57:07;;;;;;;8.50;2.20;;;25.60;99.90;;;;;;5062110;28;20424;-79
2023/07/10 11:59:34;;;;;;;8.45;1.90;;;25.80;99.90;;;;;;5113131;28;20975;-79
2023/07/10 12:02:00;;;;;;;7.30;2.33;;;25.10;99.90;;;;;;5088298;28;20788;-80
2023/07/10 12:04:27;;;;;;;5.75;1.60;;;25.20;99.90;;;;;;5060306;28;20454;-79
2023/07/10 12:06:57;;;;;;;7.15;1.90;;;25.50;99.40;;;;;;5096830;28;20464;-80
2023/07/10 12:09:23;;;;;;;5.45;1.63;;;25.70;99.90;;;;;;5090874;28;20444;-80
2023/07/10 12:11:54;;;;;;;5.75;1.80;;;26.00;99.90;;;;;;5075762;28;20441;-79
2023/07/10 12:14:20;;;;;;;7.78;2.20;;;26.30;99.20;;;;;;5107906;28;20443;-79
2023/07/10 12:16:58;;;;;;;5.30;1.90;;;25.80;99.00;;;;;;5083782;28;20442;-79
2023/07/10 12:19:37;;;;;;;7.57;2.23;;;25.70;99.20;;;;;;5061792;28;20424;-79
2023/07/10 12:22:23;;;;;;;6.18;1.98;;;25.50;99.90;;;;;;5068629;28;20455;-78
2023/07/10 12:25:00;;;;;;;7.03;2.40;;;25.60;99.90;;;;;;5076364;28;20509;-80
2023/07/10 12:27:32;;;;;;;6.97;2.17;;;25.70;99.90;;;;;;5094736;28;20422;-79
2023/07/10 12:29:58;;;;;;;4.75;1.60;;;26.00;99.90;;;;;;5082226;28;20416;-79
2023/07/10 12:32:25;;;;;;;7.88;2.08;;;26.40;99.60;;;;;;5078028;28;20412;-80
2023/07/10 12:34:54;;;;;;;5.53;2.00;;;26.40;98.50;;;;;;5076352;28;20888;-79
2023/07/10 12:37:20;;;;;;;6.10;1.80;;;26.30;97.70;;;;;;5088979;28;20545;-79
2023/07/10 12:39:50;;;;;;;6.65;1.90;;;26.60;98.10;;;;;;5092292;28;20499;-77
2023/07/10 12:42:32;;;;;;;7.33;2.20;;;26.20;97.20;;;;;;5082645;28;20412;-80
2023/07/10 12:45:07;;;;;;;7.43;1.63;;;26.10;97.30;;;;;;5087045;28;20424;-78
2023/07/10 12:47:34;;;;;;;5.47;1.70;;;26.30;97.20;;;;;;5084789;28;20416;-79
2023/07/10 12:50:01;;;;;;;5.32;1.88;;;26.60;97.80;;;;;;5082389;28;20512;-79
2023/07/10 12:52:34;;;;;;;7.50;1.83;;;26.60;97.40;;;;;;5094460;28;20452;-79
2023/07/10 12:55:03;;;;;;;5.60;1.65;;;26.60;96.10;;;;;;5086555;28;20463;-80
2023/07/10 12:57:32;;;;;;;5.18;1.50;;;26.80;96.30;;;;;;5092665;28;20458;-79